Time;durP1;ratioP1;P1;durP2;ratioP2;P2;SDS_P1;SDS_P2;PMS_P1;PMS_P2;Temp;Humidity;BMP_temperature;BMP_pressure;BME280_temperature;BME280_humidity;BME280_pressure;Samples;Min_cycle;Max_cycle;Signal;HPM_P1;HPM_P2
2021/12/07 00:00:23;;;;;;;19.27;13.65;;;2.40;99.90;;;;;;4895513;29;20463;-68
2021/12/07 00:02:49;;;;;;;20.05;14.00;;;2.30;99.90;;;;;;4898018;29;20435;-67
2021/12/07 00:05:16;;;;;;;21.08;14.70;;;2.30;99.90;;;;;;4884004;29;20092;-68
2021/12/07 00:07:43;;;;;;;21.17;13.95;;;2.20;99.90;;;;;;4907284;29;20052;-68
2021/12/07 00:10:13;;;;;;;21.08;14.63;;;2.20;99.90;;;;;;4902788;29;20060;-68
2021/12/07 00:12:41;;;;;;;21.23;14.95;;;2.20;99.90;;;;;;4902354;29;20052;-68
2021/12/07 00:15:08;;;;;;;21.75;14.32;;;2.10;99.90;;;;;;4919576;29;20390;-67
2021/12/07 00:17:34;;;;;;;21.58;13.57;;;2.10;99.90;;;;;;4900723;29;20056;-67
2021/12/07 00:20:04;;;;;;;21.85;14.15;;;2.10;99.90;;;;;;4909166;29;20083;-68
2021/12/07 00:22:30;;;;;;;20.17;13.75;;;2.00;99.90;;;;;;4916790;29;20504;-68
2021/12/07 00:24:56;;;;;;;21.20;13.50;;;2.00;99.90;;;;;;4893280;29;20052;-69
2021/12/07 00:27:21;;;;;;;19.17;13.35;;;2.00;99.90;;;;;;4899880;29;20120;-68
2021/12/07 00:29:47;;;;;;;22.35;14.57;;;2.00;99.90;;;;;;4900599;29;20090;-67
2021/12/07 00:35:17;;;;;;;19.52;13.13;;;1.90;99.90;;;;;;4900080;29;20439;-70
2021/12/07 00:37:46;;;;;;;20.75;13.93;;;1.90;99.90;;;;;;4883438;29;20477;-67
2021/12/07 00:40:14;;;;;;;20.85;14.13;;;1.90;99.90;;;;;;4884978;29;20057;-69
2021/12/07 00:42:40;;;;;;;21.00;14.32;;;1.80;99.90;;;;;;4886780;29;20482;-69
2021/12/07 00:45:08;;;;;;;20.95;14.27;;;1.80;99.90;;;;;;4919327;29;20052;-68
2021/12/07 00:47:34;;;;;;;19.15;14.13;;;1.70;99.90;;;;;;4913976;29;20049;-68
2021/12/07 00:50:00;;;;;;;19.65;13.55;;;1.70;99.90;;;;;;4898778;29;20057;-67
2021/12/07 00:52:26;;;;;;;20.55;14.23;;;1.70;99.90;;;;;;4888927;29;20056;-67
2021/12/07 00:54:51;;;;;;;21.25;13.82;;;1.60;99.90;;;;;;4901579;29;20111;-70
2021/12/07 00:57:17;;;;;;;19.95;13.73;;;1.60;99.90;;;;;;4901745;29;20056;-70
2021/12/07 00:59:42;;;;;;;19.17;13.45;;;1.70;99.90;;;;;;4901939;29;20052;-69
2021/12/07 01:02:08;;;;;;;19.52;12.90;;;1.50;99.90;;;;;;4899083;29;20045;-69
2021/12/07 01:04:34;;;;;;;17.85;12.38;;;1.50;99.90;;;;;;4882601;29;20057;-68
2021/12/07 01:07:04;;;;;;;19.40;13.32;;;1.40;99.90;;;;;;4885646;29;20056;-69
2021/12/07 01:24:41;;;;;;;19.40;13.73;;;1.40;99.90;;;;;;4885227;29;20059;-70
2021/12/07 01:25:50;;;;;;;19.38;13.55;;;1.30;99.90;;;;;;4895845;29;20044;-70
2021/12/07 01:28:25;;;;;;;21.55;13.23;;;1.30;99.90;;;;;;4893434;29;20138;-70
2021/12/07 01:30:57;;;;;;;19.10;13.07;;;1.30;99.90;;;;;;4900953;29;20131;-70
2021/12/07 01:33:43;;;;;;;17.60;12.77;;;1.60;99.90;;;;;;4900877;29;20441;-69
2021/12/07 01:36:23;;;;;;;21.55;13.23;;;1.20;99.90;;;;;;4901085;29;20139;-72
2021/12/07 01:59:58;;;;;;;16.42;12.20;;;1.10;99.90;;;;;;4917243;29;20139;-71
2021/12/07 02:02:28;;;;;;;17.95;12.07;;;1.10;99.90;;;;;;4917387;29;20598;-71
2021/12/07 02:04:55;;;;;;;15.48;11.45;;;1.10;99.90;;;;;;4891132;29;20085;-71
2021/12/07 02:07:22;;;;;;;15.82;11.23;;;1.20;99.90;;;;;;4888021;29;20442;-70
2021/12/07 02:09:53;;;;;;;15.85;11.32;;;1.10;99.90;;;;;;4900710;29;20501;-72
2021/12/07 02:12:18;;;;;;;17.02;11.77;;;1.10;99.90;;;;;;4900255;29;20048;-71
2021/12/07 02:14:44;;;;;;;14.95;11.32;;;1.10;99.90;;;;;;4900570;29;20067;-72
2021/12/07 02:17:13;;;;;;;18.10;12.38;;;1.10;99.90;;;;;;4884711;29;20548;-70
2021/12/07 02:19:40;;;;;;;18.10;12.18;;;1.10;99.90;;;;;;4911337;29;20060;-72
2021/12/07 02:22:06;;;;;;;17.58;11.68;;;1.10;99.90;;;;;;4915232;29;20055;-71
2021/12/07 02:24:32;;;;;;;17.70;12.30;;;1.10;99.90;;;;;;4912656;29;20059;-71
2021/12/07 02:26:58;;;;;;;19.70;12.65;;;1.10;99.90;;;;;;4897047;29;20055;-73
2021/12/07 02:29:24;;;;;;;16.60;11.48;;;1.10;99.90;;;;;;4897821;29;20123;-70
2021/12/07 02:31:52;;;;;;;20.23;12.30;;;1.10;99.90;;;;;;4882478;29;20089;-71
2021/12/07 02:34:18;;;;;;;17.60;11.70;;;1.10;99.90;;;;;;4894877;29;20049;-72
2021/12/07 02:36:44;;;;;;;19.25;12.93;;;1.30;99.90;;;;;;4863655;29;20136;-71
2021/12/07 02:39:12;;;;;;;19.23;12.18;;;1.20;99.90;;;;;;4883861;29;20048;-70
2021/12/07 02:41:38;;;;;;;18.85;12.52;;;1.20;99.90;;;;;;4888354;29;20059;-69
2021/12/07 02:44:06;;;;;;;18.80;13.30;;;1.10;99.90;;;;;;4916664;29;20078;-72
2021/12/07 02:46:35;;;;;;;19.60;12.90;;;1.20;99.90;;;;;;4899722;29;20052;-72
2021/12/07 02:49:02;;;;;;;19.52;13.38;;;1.20;99.90;;;;;;4912610;29;20095;-71
2021/12/07 02:51:27;;;;;;;21.67;13.68;;;1.20;99.90;;;;;;4881077;29;20055;-70
2021/12/07 02:53:55;;;;;;;19.42;13.43;;;1.20;99.90;;;;;;4897539;29;20060;-71
2021/12/07 02:56:20;;;;;;;20.48;13.48;;;1.20;99.90;;;;;;4896915;29;20060;-70
2021/12/07 02:58:46;;;;;;;19.77;13.07;;;1.30;99.90;;;;;;4896803;29;20044;-72
2021/12/07 03:01:19;;;;;;;22.77;13.95;;;1.20;99.90;;;;;;4897756;29;20528;-72
2021/12/07 03:26:09;;;;;;;19.38;13.15;;;1.20;99.90;;;;;;4916095;29;20409;-70
2021/12/07 03:28:49;;;;;;;19.67;13.35;;;1.30;99.90;;;;;;4898010;29;20044;-71
2021/12/07 03:31:16;;;;;;;20.05;13.25;;;1.30;99.90;;;;;;4883245;29;20080;-71
2021/12/07 03:33:42;;;;;;;20.45;13.43;;;1.20;99.90;;;;;;4908561;29;20052;-70
2021/12/07 03:36:10;;;;;;;20.80;13.95;;;1.20;99.90;;;;;;4890890;29;20052;-73
2021/12/07 03:38:36;;;;;;;21.15;13.63;;;1.20;99.90;;;;;;4885143;29;20052;-73
2021/12/07 03:41:03;;;;;;;21.95;14.13;;;1.20;99.90;;;;;;4911475;29;20059;-71
2021/12/07 03:43:29;;;;;;;21.38;14.25;;;1.40;99.90;;;;;;4899617;29;20056;-72
2021/12/07 03:45:54;;;;;;;22.00;13.80;;;1.20;99.90;;;;;;4899174;29;20522;-71
2021/12/07 03:48:20;;;;;;;21.13;13.38;;;1.30;99.90;;;;;;4892767;29;20076;-71
2021/12/07 03:50:46;;;;;;;19.33;12.13;;;1.30;99.90;;;;;;4911242;29;20048;-71
2021/12/07 03:53:13;;;;;;;19.55;13.13;;;1.10;99.90;;;;;;4899274;29;20087;-70
2021/12/07 03:55:39;;;;;;;20.10;13.13;;;1.10;99.90;;;;;;4899519;29;20059;-71
2021/12/07 03:58:05;;;;;;;20.65;12.68;;;1.10;99.90;;;;;;4914306;29;20063;-70
2021/12/07 04:00:34;;;;;;;20.60;12.15;;;1.10;99.90;;;;;;4898768;29;21202;-71
2021/12/07 04:03:03;;;;;;;18.25;11.68;;;1.10;99.90;;;;;;4894534;29;20123;-70
2021/12/07 04:05:29;;;;;;;19.88;12.98;;;1.00;99.90;;;;;;4913246;29;20401;-71
2021/12/07 04:07:55;;;;;;;18.23;12.02;;;1.00;99.90;;;;;;4899357;29;20053;-72
2021/12/07 04:10:25;;;;;;;17.40;11.35;;;1.00;99.90;;;;;;4898751;29;20059;-71
2021/12/07 04:12:52;;;;;;;18.88;12.13;;;1.00;99.90;;;;;;4900392;29;20135;-72
2021/12/07 04:15:19;;;;;;;18.55;11.43;;;1.00;99.90;;;;;;4919370;29;20526;-71
2021/12/07 04:17:45;;;;;;;19.92;11.93;;;1.00;99.90;;;;;;4894858;29;20052;-71
2021/12/07 04:20:14;;;;;;;18.85;11.57;;;0.90;99.90;;;;;;4901942;29;20044;-72
2021/12/07 04:22:40;;;;;;;18.40;10.95;;;0.90;99.90;;;;;;4901957;29;20511;-71
2021/12/07 04:25:10;;;;;;;21.40;12.52;;;0.90;99.90;;;;;;4892082;29;20065;-70
2021/12/07 04:27:38;;;;;;;20.58;11.90;;;0.90;99.90;;;;;;4899597;29;20116;-69
2021/12/07 04:30:18;;;;;;;18.73;11.13;;;0.90;99.90;;;;;;4900716;29;20053;-70
2021/12/07 04:32:44;;;;;;;20.40;11.80;;;0.90;99.90;;;;;;4898779;29;20048;-73
2021/12/07 04:35:11;;;;;;;21.10;12.13;;;0.90;99.90;;;;;;4898562;29;20049;-69
2021/12/07 04:37:38;;;;;;;16.98;10.70;;;0.90;99.90;;;;;;4883639;29;20095;-73
2021/12/07 04:40:06;;;;;;;16.50;10.77;;;0.90;99.90;;;;;;4899736;29;20057;-70
2021/12/07 04:42:31;;;;;;;17.42;10.18;;;1.20;99.90;;;;;;4902162;29;20473;-71
2021/12/07 04:45:01;;;;;;;17.85;11.35;;;0.80;99.90;;;;;;4918952;29;20059;-70
2021/12/07 04:47:49;;;;;;;17.08;11.13;;;0.80;99.90;;;;;;4897036;29;20123;-70
2021/12/07 04:57:38;;;;;;;16.48;9.27;;;0.70;99.90;;;;;;4901761;29;20056;-71
2021/12/07 04:58:28;;;;;;;15.05;8.85;;;0.70;99.90;;;;;;4901905;29;20123;-70
2021/12/07 05:00:54;;;;;;;14.68;8.75;;;0.70;99.90;;;;;;4901163;29;20064;-70
2021/12/07 05:03:20;;;;;;;13.25;8.98;;;0.70;99.90;;;;;;4886285;29;20049;-70
2021/12/07 05:05:49;;;;;;;15.55;9.45;;;0.70;99.90;;;;;;4891663;29;20143;-69
2021/12/07 05:08:22;;;;;;;14.95;9.10;;;0.70;99.90;;;;;;4890608;29;20401;-70
2021/12/07 05:23:53;;;;;;;14.95;9.43;;;0.80;99.90;;;;;;4901950;29;20103;-72
2021/12/07 05:39:49;;;;;;;13.00;8.07;;;0.70;99.90;;;;;;4891659;29;20082;-70
2021/12/07 05:42:14;;;;;;;15.10;8.25;;;0.60;99.90;;;;;;4899095;29;20044;-69
2021/12/07 05:44:40;;;;;;;15.73;8.25;;;0.60;99.90;;;;;;4898354;29;20418;-69
2021/12/07 05:47:07;;;;;;;17.42;9.10;;;0.60;99.90;;;;;;4885976;29;20119;-71
2021/12/07 05:49:34;;;;;;;15.73;8.73;;;0.60;99.90;;;;;;4900532;29;20062;-68
2021/12/07 05:52:00;;;;;;;13.73;7.93;;;0.60;99.90;;;;;;4901026;29;20090;-72
2021/12/07 05:54:26;;;;;;;14.80;8.00;;;0.50;99.90;;;;;;4900428;29;20091;-69
2021/12/07 05:56:51;;;;;;;16.42;8.73;;;0.60;99.90;;;;;;4913505;29;20056;-69
2021/12/07 05:59:17;;;;;;;22.30;9.02;;;0.50;99.90;;;;;;4901056;29;20051;-70
2021/12/07 06:01:42;;;;;;;15.32;8.82;;;0.60;99.90;;;;;;4917044;29;20059;-71
2021/12/07 06:04:08;;;;;;;17.23;9.18;;;0.60;99.90;;;;;;4901804;29;20063;-70
2021/12/07 06:06:34;;;;;;;20.30;10.10;;;0.60;99.90;;;;;;4906364;29;20068;-69
2021/12/07 06:08:59;;;;;;;22.52;10.30;;;0.60;99.90;;;;;;4900403;29;20048;-71
2021/12/07 06:11:25;;;;;;;18.27;10.10;;;0.70;99.90;;;;;;4897794;29;20056;-69
2021/12/07 06:13:52;;;;;;;22.08;10.20;;;0.80;99.90;;;;;;4898376;29;20052;-70
2021/12/07 06:16:18;;;;;;;21.75;12.70;;;0.80;99.90;;;;;;4900350;29;20071;-70
2021/12/07 06:18:44;;;;;;;26.90;12.70;;;0.90;99.90;;;;;;4916033;29;20095;-71
2021/12/07 06:21:13;;;;;;;26.40;11.93;;;0.90;99.90;;;;;;4899911;29;20494;-70
2021/12/07 06:23:39;;;;;;;28.90;13.93;;;0.90;99.90;;;;;;4902781;29;20497;-70
2021/12/07 06:26:05;;;;;;;24.33;14.13;;;1.00;99.90;;;;;;4881287;29;20060;-72
2021/12/07 06:28:31;;;;;;;26.17;13.60;;;1.00;99.90;;;;;;4904189;29;20060;-70
2021/12/07 06:30:57;;;;;;;22.15;11.65;;;1.00;99.90;;;;;;4900381;29;20062;-70
2021/12/07 06:33:24;;;;;;;27.45;14.15;;;1.00;99.90;;;;;;4900415;29;20497;-70
2021/12/07 06:35:56;;;;;;;23.98;11.98;;;1.10;99.90;;;;;;4912532;29;20063;-70
2021/12/07 06:38:24;;;;;;;20.38;12.55;;;1.00;99.90;;;;;;4906082;29;20489;-70
2021/12/07 06:40:49;;;;;;;21.60;10.35;;;1.00;99.90;;;;;;4916709;29;20084;-69
2021/12/07 06:43:15;;;;;;;24.27;11.23;;;1.00;99.90;;;;;;4900098;29;20143;-70
2021/12/07 06:45:40;;;;;;;19.83;10.50;;;0.90;99.90;;;;;;4910912;29;20151;-71
2021/12/07 06:48:07;;;;;;;19.27;10.52;;;1.00;99.90;;;;;;4878084;29;20076;-69
2021/12/07 06:50:33;;;;;;;21.88;10.25;;;1.00;99.90;;;;;;4894258;29;20049;-71
2021/12/07 06:52:59;;;;;;;21.08;10.30;;;1.00;99.90;;;;;;4904154;29;20056;-69
2021/12/07 06:55:24;;;;;;;21.42;10.38;;;1.10;99.90;;;;;;4881407;29;20627;-70
2021/12/07 06:57:50;;;;;;;20.60;10.18;;;1.00;99.90;;;;;;4896994;29;20052;-69
2021/12/07 07:00:17;;;;;;;22.13;10.63;;;1.00;99.90;;;;;;4880883;29;20067;-71
2021/12/07 07:02:42;;;;;;;21.40;10.93;;;0.90;99.90;;;;;;4881031;29;20056;-70
2021/12/07 07:05:09;;;;;;;19.67;10.65;;;0.80;99.90;;;;;;4895903;29;20049;-70
2021/12/07 07:07:35;;;;;;;17.25;9.73;;;0.80;99.90;;;;;;4881186;29;20096;-71
2021/12/07 07:10:03;;;;;;;18.13;9.15;;;0.80;99.90;;;;;;4865666;29;20084;-69
2021/12/07 07:12:28;;;;;;;20.58;10.23;;;0.70;99.90;;;;;;4902084;29;20052;-69
2021/12/07 07:14:54;;;;;;;19.00;10.02;;;0.70;99.90;;;;;;4915762;29;20040;-69
2021/12/07 07:17:19;;;;;;;19.70;8.93;;;0.70;99.90;;;;;;4899644;29;20056;-69
2021/12/07 07:19:46;;;;;;;24.10;9.65;;;0.60;99.90;;;;;;4914674;29;20150;-68
2021/12/07 07:22:12;;;;;;;19.08;9.43;;;0.60;99.90;;;;;;4914897;29;20044;-72
2021/12/07 07:24:38;;;;;;;23.95;10.85;;;0.60;99.90;;;;;;4890775;29;20095;-69
2021/12/07 07:27:04;;;;;;;31.45;11.75;;;0.60;99.90;;;;;;4897798;29;20421;-69
2021/12/07 07:29:29;;;;;;;25.27;10.82;;;0.60;99.90;;;;;;4902753;29;20052;-70
2021/12/07 07:31:56;;;;;;;27.75;11.65;;;0.60;99.90;;;;;;4896019;29;20048;-70
2021/12/07 07:34:21;;;;;;;23.15;11.23;;;0.60;99.90;;;;;;4881271;29;20079;-70
2021/12/07 07:36:47;;;;;;;19.10;10.52;;;0.70;99.90;;;;;;4899399;29;20408;-70
2021/12/07 07:39:13;;;;;;;23.95;10.40;;;0.70;99.90;;;;;;4899723;29;20103;-70
2021/12/07 07:41:38;;;;;;;22.40;10.85;;;0.70;99.90;;;;;;4899572;29;20052;-70
2021/12/07 07:44:05;;;;;;;21.10;10.52;;;0.70;99.90;;;;;;4885818;29;20045;-72
2021/12/07 07:46:30;;;;;;;31.73;14.80;;;0.70;99.90;;;;;;4897723;29;20140;-68
2021/12/07 07:48:56;;;;;;;25.48;13.20;;;0.70;99.90;;;;;;4899654;29;20135;-67
2021/12/07 07:51:22;;;;;;;26.25;14.23;;;0.80;99.90;;;;;;4896549;29;20090;-70
2021/12/07 07:53:48;;;;;;;22.20;11.45;;;0.80;99.90;;;;;;4920512;29;20052;-71
2021/12/07 07:56:14;;;;;;;29.30;11.07;;;0.80;99.90;;;;;;4903555;29;20048;-69
2021/12/07 07:58:40;;;;;;;21.90;9.20;;;0.80;99.90;;;;;;4897429;29;20540;-71
2021/12/07 08:01:06;;;;;;;23.90;10.63;;;0.90;99.90;;;;;;4918916;29;20066;-72
2021/12/07 08:03:32;;;;;;;19.15;10.48;;;0.90;99.90;;;;;;4885475;29;20131;-69
2021/12/07 08:05:58;;;;;;;18.67;8.95;;;0.90;99.90;;;;;;4900452;29;20128;-70
2021/12/07 08:08:23;;;;;;;23.60;9.77;;;0.90;99.90;;;;;;4884077;29;20049;-70
2021/12/07 08:10:49;;;;;;;19.23;9.35;;;0.90;99.90;;;;;;4887349;29;20055;-71
2021/12/07 08:13:16;;;;;;;21.63;9.35;;;0.90;99.90;;;;;;4890320;29;20076;-70
2021/12/07 08:15:43;;;;;;;17.50;9.02;;;0.90;99.90;;;;;;4883957;29;20053;-68
2021/12/07 08:18:11;;;;;;;21.00;8.55;;;0.80;99.90;;;;;;4883923;29;20111;-68
2021/12/07 08:20:38;;;;;;;22.45;9.32;;;0.90;99.90;;;;;;4899619;29;20061;-71
2021/12/07 08:23:04;;;;;;;17.92;9.02;;;0.90;99.90;;;;;;4899134;29;20076;-68
2021/12/07 08:25:37;;;;;;;18.80;8.88;;;0.80;99.90;;;;;;4904742;29;20053;-70
2021/12/07 08:28:07;;;;;;;15.73;8.73;;;0.80;99.90;;;;;;4900977;29;20060;-70
2021/12/07 08:30:33;;;;;;;19.33;8.77;;;0.90;99.90;;;;;;4900202;29;20535;-70
2021/12/07 08:32:59;;;;;;;17.13;8.55;;;0.80;99.90;;;;;;4900693;29;20489;-69
2021/12/07 08:35:24;;;;;;;21.15;8.75;;;0.80;99.90;;;;;;4883202;29;20104;-69
2021/12/07 08:37:50;;;;;;;16.13;7.63;;;0.80;99.90;;;;;;4900087;29;20216;-69
2021/12/07 08:40:22;;;;;;;18.45;9.13;;;0.80;99.90;;;;;;4900515;29;20400;-70
2021/12/07 08:42:49;;;;;;;21.45;9.23;;;0.80;99.90;;;;;;4900449;29;20099;-71
2021/12/07 08:45:15;;;;;;;19.73;8.90;;;0.80;99.90;;;;;;4883745;29;20646;-70
2021/12/07 08:47:41;;;;;;;18.95;8.80;;;0.90;99.90;;;;;;4883600;29;20049;-68
2021/12/07 08:50:15;;;;;;;25.88;8.90;;;0.80;99.90;;;;;;4883228;29;20048;-68
2021/12/07 08:52:40;;;;;;;18.90;8.60;;;0.90;99.90;;;;;;4883480;29;20442;-69
2021/12/07 09:00:33;;;;;;;20.98;8.38;;;1.00;99.90;;;;;;4882889;29;20084;-72
2021/12/07 09:02:59;;;;;;;16.17;7.97;;;1.00;99.90;;;;;;4883593;29;20143;-69
2021/12/07 09:05:24;;;;;;;20.05;8.05;;;1.00;99.90;;;;;;4899851;29;20143;-69
2021/12/07 09:07:50;;;;;;;18.73;8.90;;;1.00;99.90;;;;;;4883329;29;20087;-69
2021/12/07 09:10:18;;;;;;;18.88;8.55;;;1.10;99.90;;;;;;4883131;29;20045;-69
2021/12/07 09:12:44;;;;;;;16.98;7.97;;;1.10;99.90;;;;;;4883104;29;20408;-68
2021/12/07 09:15:11;;;;;;;15.73;7.55;;;1.20;99.90;;;;;;4898600;29;20107;-69
2021/12/07 09:17:37;;;;;;;16.70;8.18;;;1.20;99.90;;;;;;4899888;29;20059;-68
2021/12/07 09:20:11;;;;;;;23.48;8.45;;;1.40;99.90;;;;;;4882156;29;20053;-71
2021/12/07 09:22:37;;;;;;;21.75;8.75;;;1.30;99.90;;;;;;4882755;29;20052;-68
2021/12/07 09:25:04;;;;;;;19.92;8.05;;;1.40;99.90;;;;;;4898976;29;20444;-69
2021/12/07 09:27:29;;;;;;;26.33;9.00;;;1.50;99.90;;;;;;4899513;29;20470;-70
2021/12/07 09:29:55;;;;;;;22.13;8.65;;;1.50;99.90;;;;;;4883243;29;20151;-69
2021/12/07 09:32:20;;;;;;;19.15;8.02;;;1.60;99.90;;;;;;4867451;29;20055;-69
2021/12/07 09:34:46;;;;;;;20.48;8.38;;;1.60;99.90;;;;;;4898754;29;20065;-68
2021/12/07 09:37:12;;;;;;;18.25;9.05;;;1.60;99.90;;;;;;4894383;29;20048;-68
2021/12/07 09:39:37;;;;;;;20.88;8.18;;;1.70;99.90;;;;;;4915910;29;20147;-69
2021/12/07 09:42:03;;;;;;;23.30;8.48;;;1.70;99.90;;;;;;4882663;29;20491;-68
2021/12/07 09:44:29;;;;;;;25.08;8.88;;;1.70;99.90;;;;;;4882159;29;20060;-69
2021/12/07 09:46:55;;;;;;;24.48;9.48;;;1.70;99.90;;;;;;4882543;29;20048;-67
2021/12/07 09:49:20;;;;;;;22.63;8.52;;;1.80;99.90;;;;;;4881391;29;20053;-69
2021/12/07 09:51:46;;;;;;;23.20;9.90;;;1.80;99.90;;;;;;4882479;29;20049;-68
2021/12/07 09:54:12;;;;;;;22.38;8.80;;;1.90;99.90;;;;;;4866692;29;20049;-67
2021/12/07 09:56:38;;;;;;;25.75;8.98;;;2.00;99.90;;;;;;4898620;29;20493;-69
2021/12/07 09:59:05;;;;;;;25.80;11.27;;;2.00;99.90;;;;;;4897639;29;20088;-67
2021/12/07 10:01:31;;;;;;;25.17;10.60;;;2.10;99.90;;;;;;4898666;29;20160;-68
2021/12/07 10:03:57;;;;;;;27.05;12.20;;;2.20;99.90;;;;;;4882098;29;20139;-68
2021/12/07 10:06:24;;;;;;;28.20;9.88;;;2.30;99.90;;;;;;4881920;29;20057;-68
2021/12/07 10:08:50;;;;;;;26.65;9.85;;;2.40;99.90;;;;;;4881555;29;20144;-70
2021/12/07 10:11:17;;;;;;;23.60;8.63;;;2.40;99.90;;;;;;4881571;29;20127;-67
2021/12/07 10:13:44;;;;;;;21.17;9.30;;;2.60;99.90;;;;;;4881426;29;20056;-68
2021/12/07 10:16:12;;;;;;;19.17;8.35;;;2.60;99.90;;;;;;4898286;29;20041;-68
2021/12/07 10:18:41;;;;;;;25.70;8.52;;;2.70;99.90;;;;;;4898835;29;20055;-68
2021/12/07 10:21:23;;;;;;;20.15;7.63;;;2.80;99.90;;;;;;4881315;29;20049;-68
2021/12/07 10:23:51;;;;;;;24.75;8.05;;;2.80;99.90;;;;;;4898239;29;20052;-69
2021/12/07 10:26:22;;;;;;;16.80;7.78;;;2.70;99.90;;;;;;4898698;29;20481;-69
2021/12/07 10:29:18;;;;;;;14.73;8.50;;;2.70;99.90;;;;;;4902614;29;20397;-69
2021/12/07 10:31:46;;;;;;;18.55;8.45;;;2.80;99.90;;;;;;4917690;29;20048;-68
2021/12/07 10:34:18;;;;;;;18.30;7.95;;;2.80;99.90;;;;;;4917203;29;20052;-70
2021/12/07 10:36:49;;;;;;;16.17;8.05;;;2.80;99.90;;;;;;4900390;29;20059;-70
2021/12/07 10:39:24;;;;;;;13.85;7.82;;;2.80;99.90;;;;;;4892883;29;20060;-69
2021/12/07 10:41:57;;;;;;;19.35;7.82;;;2.90;99.90;;;;;;4882024;29;20053;-69
2021/12/07 10:44:23;;;;;;;;;;;3.00;99.90;;;;;;4892447;29;20048;-73
2021/12/07 10:46:58;;;;;;;19.35;7.25;;;3.00;99.90;;;;;;4899342;29;19918;-70
2021/12/07 10:49:36;;;;;;;14.40;7.43;;;3.20;99.90;;;;;;4891452;29;20359;-69
2021/12/07 10:52:17;;;;;;;16.85;7.50;;;3.20;99.90;;;;;;4881261;29;20052;-73
2021/12/07 10:54:47;;;;;;;23.20;7.13;;;3.30;99.90;;;;;;4907486;29;20044;-69
2021/12/07 10:57:22;;;;;;;15.30;6.93;;;3.40;99.90;;;;;;4911500;29;20557;-71
2021/12/07 10:59:54;;;;;;;18.50;6.50;;;3.40;99.90;;;;;;4897682;29;20060;-69
2021/12/07 11:02:22;;;;;;;14.43;6.80;;;3.40;99.90;;;;;;4898077;29;20056;-71
2021/12/07 11:04:49;;;;;;;15.32;6.75;;;3.50;99.90;;;;;;4880601;29;20051;-71
2021/12/07 11:07:17;;;;;;;12.48;5.95;;;3.50;99.90;;;;;;4881369;29;20052;-69
2021/12/07 11:09:48;;;;;;;18.40;6.50;;;4.10;99.90;;;;;;4881350;29;20045;-69
2021/12/07 11:12:19;;;;;;;11.52;5.97;;;3.60;99.90;;;;;;4881840;29;20048;-71
2021/12/07 11:14:50;;;;;;;17.10;6.47;;;3.80;99.90;;;;;;4897859;29;20060;-70
2021/12/07 11:17:27;;;;;;;14.23;6.75;;;3.80;99.90;;;;;;4881513;29;20049;-70
2021/12/07 11:19:53;;;;;;;13.20;6.20;;;3.80;99.90;;;;;;4872770;29;20132;-71
2021/12/07 11:22:24;;;;;;;11.68;6.20;;;3.90;99.90;;;;;;4880334;29;20040;-70
2021/12/07 11:24:53;;;;;;;12.73;5.88;;;3.90;99.90;;;;;;4880300;29;20048;-72
2021/12/07 11:30:10;;;;;;;13.38;5.63;;;4.40;99.90;;;;;;4896641;29;20101;-70
2021/12/07 11:32:36;;;;;;;15.48;6.28;;;4.10;99.90;;;;;;4883387;29;20060;-71
2021/12/07 11:35:27;;;;;;;14.60;6.72;;;4.10;99.90;;;;;;4880253;29;20060;-71
2021/12/07 11:38:03;;;;;;;16.05;6.80;;;4.20;99.90;;;;;;4880193;29;20443;-71
2021/12/07 11:40:36;;;;;;;13.05;6.03;;;4.20;99.90;;;;;;4880792;29;20044;-70
2021/12/07 11:43:14;;;;;;;12.85;6.03;;;4.30;99.90;;;;;;4880013;29;20048;-70
2021/12/07 11:45:43;;;;;;;12.65;6.00;;;4.20;99.90;;;;;;4897178;29;20464;-72
2021/12/07 11:48:30;;;;;;;12.13;5.90;;;4.40;99.90;;;;;;4899292;29;20063;-72
2021/12/07 11:50:56;;;;;;;13.40;6.07;;;4.40;99.90;;;;;;4903371;29;20057;-71
2021/12/07 11:53:33;;;;;;;14.00;6.35;;;4.40;99.90;;;;;;4865518;29;20041;-70
2021/12/07 11:56:00;;;;;;;12.38;5.63;;;4.50;99.90;;;;;;4890845;29;20059;-70
2021/12/07 11:58:29;;;;;;;12.38;5.85;;;4.60;99.90;;;;;;4880176;29;20150;-70
2021/12/07 12:00:57;;;;;;;15.98;6.13;;;4.60;99.90;;;;;;4896882;29;20129;-69
2021/12/07 12:03:26;;;;;;;25.80;11.43;;;4.70;99.90;;;;;;4880666;29;20519;-71
2021/12/07 12:05:54;;;;;;;20.45;10.45;;;4.80;99.90;;;;;;4895492;29;20048;-71
2021/12/07 12:08:20;;;;;;;13.80;8.52;;;4.80;99.90;;;;;;4871478;29;20049;-70
2021/12/07 12:11:34;;;;;;;12.20;6.70;;;4.80;99.90;;;;;;4880756;29;20059;-71
2021/12/07 12:14:27;;;;;;;15.18;7.07;;;4.90;99.90;;;;;;4858607;29;20237;-71
2021/12/07 12:17:12;;;;;;;16.05;6.88;;;5.00;99.90;;;;;;4865209;29;20091;-69
2021/12/07 12:19:56;;;;;;;16.20;6.43;;;5.10;99.90;;;;;;4879811;29;20505;-69
2021/12/07 12:22:21;;;;;;;11.05;5.80;;;5.20;99.90;;;;;;4884413;29;20063;-70
2021/12/07 12:24:49;;;;;;;12.13;5.85;;;5.30;99.90;;;;;;4914633;29;20056;-69
2021/12/07 12:27:27;;;;;;;14.10;5.85;;;5.30;99.90;;;;;;4899359;29;20060;-70
2021/12/07 12:29:55;;;;;;;11.35;6.07;;;5.30;99.90;;;;;;4881002;29;20083;-70
2021/12/07 12:32:36;;;;;;;11.15;5.57;;;5.30;99.90;;;;;;4882923;29;20760;-70
2021/12/07 12:35:04;;;;;;;18.05;6.65;;;5.30;99.90;;;;;;4882952;29;20056;-68
2021/12/07 12:37:31;;;;;;;15.98;8.75;;;5.30;99.90;;;;;;4902432;29;20060;-69
2021/12/07 12:40:00;;;;;;;14.40;7.57;;;5.30;99.90;;;;;;4886886;29;20060;-71
2021/12/07 12:42:30;;;;;;;14.43;7.57;;;5.30;99.90;;;;;;4883851;29;20131;-68
2021/12/07 12:44:59;;;;;;;14.55;6.82;;;5.30;99.90;;;;;;4883845;29;20397;-68
2021/12/07 12:47:27;;;;;;;11.98;6.55;;;5.30;99.90;;;;;;4883773;29;20057;-71
2021/12/07 12:49:52;;;;;;;13.10;5.55;;;5.40;99.90;;;;;;4882893;29;20063;-70
2021/12/07 12:52:40;;;;;;;13.30;5.25;;;5.40;99.90;;;;;;4883737;29;20057;-69
2021/12/07 12:55:24;;;;;;;20.63;5.55;;;5.30;99.90;;;;;;4900017;29;20180;-71
2021/12/07 12:57:51;;;;;;;13.05;5.63;;;5.20;99.90;;;;;;4883227;29;20052;-70
2021/12/07 13:00:16;;;;;;;12.15;6.38;;;5.20;99.90;;;;;;4899721;29;20061;-68
2021/12/07 13:02:49;;;;;;;10.57;5.68;;;5.10;99.90;;;;;;4883460;29;20112;-68
2021/12/07 13:05:16;;;;;;;;;;;5.20;99.90;;;;;;4899916;29;20104;-68
2021/12/07 13:07:42;;;;;;;17.35;5.93;;;5.10;99.90;;;;;;4883403;29;19927;-68
2021/12/07 13:10:07;;;;;;;15.43;6.03;;;5.10;99.90;;;;;;4882793;29;20123;-68
2021/12/07 13:12:38;;;;;;;12.82;5.80;;;5.10;99.90;;;;;;4882860;29;20057;-69
2021/12/07 13:15:09;;;;;;;9.48;5.60;;;5.10;99.90;;;;;;4901893;29;20474;-69
2021/12/07 13:17:48;;;;;;;12.88;6.60;;;5.10;99.90;;;;;;4882279;29;20099;-71
2021/12/07 13:20:30;;;;;;;12.43;6.00;;;5.10;99.90;;;;;;4882438;29;20052;-67
2021/12/07 13:23:04;;;;;;;11.80;5.83;;;5.10;99.90;;;;;;4882351;29;20084;-69
2021/12/07 13:25:37;;;;;;;14.02;5.80;;;5.10;99.90;;;;;;4883472;29;20430;-70
2021/12/07 13:28:24;;;;;;;13.35;6.50;;;5.10;99.90;;;;;;4899443;29;20060;-67
2021/12/07 13:30:51;;;;;;;13.88;5.97;;;5.00;99.90;;;;;;4882563;29;20052;-68
2021/12/07 13:33:21;;;;;;;12.02;5.90;;;5.00;99.90;;;;;;4882905;29;20061;-68
2021/12/07 13:35:49;;;;;;;17.85;6.65;;;5.00;99.90;;;;;;4898884;29;20066;-67
2021/12/07 13:38:28;;;;;;;12.07;6.13;;;5.00;99.90;;;;;;4898690;29;20061;-67
2021/12/07 13:41:13;;;;;;;9.52;5.90;;;5.00;99.90;;;;;;4882517;29;20116;-69
2021/12/07 13:43:41;;;;;;;12.98;6.05;;;5.00;99.90;;;;;;4898796;29;20060;-67
2021/12/07 13:46:15;;;;;;;16.67;6.30;;;4.90;99.90;;;;;;4881769;29;20061;-69
2021/12/07 13:48:42;;;;;;;17.38;6.45;;;4.90;99.90;;;;;;4898128;29;20438;-68
2021/12/07 13:51:10;;;;;;;14.32;6.82;;;4.80;99.90;;;;;;4898937;29;20068;-68
2021/12/07 13:53:41;;;;;;;15.00;6.30;;;4.80;99.90;;;;;;4881671;29;20108;-67
2021/12/07 13:56:07;;;;;;;13.05;7.10;;;4.80;99.90;;;;;;4899190;29;20111;-66
2021/12/07 13:59:00;;;;;;;13.93;7.07;;;4.70;99.90;;;;;;4882333;29;20484;-68
2021/12/07 14:01:29;;;;;;;16.10;7.47;;;4.70;99.90;;;;;;4898539;29;20104;-67
2021/12/07 14:03:56;;;;;;;19.60;8.52;;;4.60;99.90;;;;;;4881965;29;20486;-67
2021/12/07 14:06:22;;;;;;;17.33;7.95;;;4.60;99.90;;;;;;4898628;29;20059;-67
2021/12/07 14:08:49;;;;;;;17.05;7.40;;;4.60;99.90;;;;;;4899166;29;20080;-67
2021/12/07 14:11:17;;;;;;;15.60;7.93;;;4.50;99.90;;;;;;4898924;29;20055;-67
2021/12/07 14:13:46;;;;;;;14.02;8.43;;;4.50;99.90;;;;;;4898568;29;20125;-69
2021/12/07 14:16:13;;;;;;;12.02;7.38;;;4.40;99.90;;;;;;4882008;29;20123;-67
2021/12/07 14:18:42;;;;;;;15.65;8.90;;;4.40;99.90;;;;;;4882077;29;20234;-69
2021/12/07 14:21:08;;;;;;;15.20;8.63;;;4.30;99.90;;;;;;4898329;29;20056;-66
2021/12/07 14:23:37;;;;;;;18.60;9.07;;;4.30;99.90;;;;;;4881351;29;20522;-68
2021/12/07 14:26:16;;;;;;;16.80;9.38;;;4.20;99.90;;;;;;4881959;29;20067;-69
2021/12/07 14:28:46;;;;;;;21.95;9.55;;;4.20;99.90;;;;;;4881274;29;20056;-67
2021/12/07 14:31:27;;;;;;;21.92;10.35;;;4.20;99.90;;;;;;4881827;29;20056;-68